Private Wetterstation Sandau
Wetterdaten: Sonntag, 26.08.2012
Datum Zeit Temp. A. Feuchte A. Luftdruck Regen Wind Richtung Richtung Taupunkt Windchill
26.08.2012 00:01 17,0 C 80 % 1007,3 hPa 0,0 l/m 1,8 km/h (1 Bft) S-SO 157 13,5 C 17,0 C
26.08.2012 00:06 17,0 C 79 % 1007,4 hPa 0,0 l/m 1,8 km/h (1 Bft) SO 135 13,3 C 17,0 C
26.08.2012 00:11 16,9 C 79 % 1007,4 hPa 0,0 l/m 2,5 km/h (1 Bft) O 90 13,2 C 16,9 C
26.08.2012 00:16 16,8 C 79 % 1007,4 hPa 0,0 l/m 0,0 km/h (0 Bft) O 90 13,1 C 16,8 C
26.08.2012 00:21 16,7 C 79 % 1007,3 hPa 0,0 l/m 0,0 km/h (0 Bft) O 90 13,0 C 16,7 C
26.08.2012 00:26 16,6 C 79 % 1007,3 hPa 0,0 l/m 0,0 km/h (0 Bft) O 90 12,9 C 16,6 C
26.08.2012 00:31 16,7 C 80 % 1007,3 hPa 0,0 l/m 0,0 km/h (0 Bft) O 90 13,2 C 16,7 C
26.08.2012 00:36 16,7 C 80 % 1007,3 hPa 0,0 l/m 0,0 km/h (0 Bft) O 90 13,2 C 16,7 C
26.08.2012 00:41 16,8 C 80 % 1008,0 hPa 0,0 l/m 7,6 km/h (2 Bft) W-NW 292 13,3 C 16,8 C
26.08.2012 00:46 16,8 C 81 % 1007,8 hPa 0,0 l/m 5,4 km/h (1 Bft) NW 315 13,5 C 16,8 C
26.08.2012 00:51 16,8 C 82 % 1007,7 hPa 0,0 l/m 0,0 km/h (0 Bft) W 270 13,7 C 16,8 C
26.08.2012 00:56 16,8 C 83 % 1007,5 hPa 0,0 l/m 2,2 km/h (1 Bft) SW 225 13,9 C 16,8 C
26.08.2012 01:01 16,8 C 83 % 1007,6 hPa 0,0 l/m 0,0 km/h (0 Bft) S-SW 202 13,9 C 16,8 C
26.08.2012 01:06 16,9 C 84 % 1007,4 hPa 0,0 l/m 0,0 km/h (0 Bft) S-SW 202 14,2 C 16,9 C
26.08.2012 01:11 16,9 C 84 % 1007,4 hPa 0,0 l/m 0,0 km/h (0 Bft) S-SW 202 14,2 C 16,9 C
26.08.2012 01:16 16,9 C 84 % 1007,3 hPa 0,0 l/m 0,0 km/h (0 Bft) S-SW 202 14,2 C 16,9 C
26.08.2012 01:21 16,9 C 84 % 1007,3 hPa 0,0 l/m 0,0 km/h (0 Bft) S-SW 202 14,2 C 16,9 C
26.08.2012 01:26 16,9 C 84 % 1007,3 hPa 0,0 l/m 0,0 km/h (0 Bft) S-SW 202 14,2 C 16,9 C
26.08.2012 01:31 16,9 C 85 % 1007,0 hPa 0,0 l/m 0,0 km/h (0 Bft) S-SW 202 14,4 C 16,9 C
26.08.2012 01:36 16,9 C 85 % 1007,3 hPa 0,0 l/m 0,0 km/h (0 Bft) S-SW 202 14,4 C 16,9 C
26.08.2012 01:41 16,8 C 85 % 1007,3 hPa 0,0 l/m 0,0 km/h (0 Bft) S-SW 202 14,3 C 16,8 C
26.08.2012 01:46 16,7 C 85 % 1007,4 hPa 0,0 l/m 0,0 km/h (0 Bft) S-SW 202 14,2 C 16,7 C
26.08.2012 01:51 16,5 C 85 % 1007,5 hPa 0,0 l/m 0,0 km/h (0 Bft) S-SW 202 14,0 C 16,5 C
26.08.2012 01:56 16,4 C 85 % 1007,6 hPa 0,0 l/m 0,0 km/h (0 Bft) S 180 13,9 C 16,4 C
26.08.2012 02:01 16,4 C 85 % 1007,5 hPa 0,0 l/m 0,0 km/h (0 Bft) S 180 13,9 C 16,4 C
26.08.2012 02:06 16,3 C 85 % 1007,5 hPa 0,0 l/m 0,0 km/h (0 Bft) S 180 13,8 C 16,3 C
26.08.2012 02:11 16,2 C 85 % 1007,8 hPa 0,0 l/m 4,3 km/h (1 Bft) S 180 13,7 C 16,2 C
26.08.2012 02:16 16,1 C 85 % 1007,7 hPa 0,0 l/m 0,0 km/h (0 Bft) S-SW 202 13,6 C 16,1 C
26.08.2012 02:21 16,1 C 85 % 1007,5 hPa 0,0 l/m 2,2 km/h (1 Bft) S-SW 202 13,6 C 16,1 C
26.08.2012 02:26 16,0 C 85 % 1007,5 hPa 0,0 l/m 0,0 km/h (0 Bft) S-SO 157 13,5 C 16,0 C
26.08.2012 02:31 15,9 C 85 % 1007,5 hPa 0,0 l/m 0,0 km/h (0 Bft) S-SW 202 13,4 C 15,9 C
26.08.2012 02:36 15,9 C 86 % 1007,7 hPa 0,0 l/m 3,6 km/h (1 Bft) S-SO 157 13,6 C 15,9 C
26.08.2012 02:41 15,9 C 86 % 1007,6 hPa 0,0 l/m 3,2 km/h (1 Bft) S-SO 157 13,6 C 15,9 C
26.08.2012 02:46 15,9 C 86 % 1007,6 hPa 0,0 l/m 2,2 km/h (1 Bft) S-SO 157 13,6 C 15,9 C
26.08.2012 02:51 15,9 C 86 % 1007,6 hPa 0,0 l/m 2,5 km/h (1 Bft) S 180 13,6 C 15,9 C
26.08.2012 02:56 15,8 C 86 % 1007,6 hPa 0,0 l/m 4,3 km/h (1 Bft) S-SW 202 13,5 C 15,8 C
26.08.2012 03:01 15,8 C 86 % 1007,5 hPa 0,0 l/m 4,0 km/h (1 Bft) S-SW 202 13,5 C 15,8 C
26.08.2012 03:06 15,7 C 86 % 1007,5 hPa 0,0 l/m 3,6 km/h (1 Bft) S 180 13,4 C 15,7 C
26.08.2012 03:11 15,6 C 86 % 1007,5 hPa 0,0 l/m 2,5 km/h (1 Bft) S-SO 157 13,3 C 15,6 C
26.08.2012 03:16 15,6 C 86 % 1007,5 hPa 0,0 l/m 3,6 km/h (1 Bft) S-SW 202 13,3 C 15,6 C
26.08.2012 03:21 15,6 C 86 % 1007,5 hPa 0,0 l/m 1,8 km/h (1 Bft) S-SO 157 13,3 C 15,6 C
26.08.2012 03:26 15,6 C 86 % 1007,6 hPa 0,0 l/m 2,5 km/h (1 Bft) S 180 13,3 C 15,6 C
26.08.2012 03:31 15,5 C 86 % 1007,6 hPa 0,0 l/m 1,4 km/h (1 Bft) S-SO 157 13,2 C 15,5 C
26.08.2012 03:36 15,5 C 86 % 1007,6 hPa 0,0 l/m 0,0 km/h (0 Bft) S-SO 157 13,2 C 15,5 C
26.08.2012 03:41 15,4 C 86 % 1007,6 hPa 0,0 l/m 2,5 km/h (1 Bft) S-SW 202 13,1 C 15,4 C
26.08.2012 03:46 15,4 C 86 % 1007,7 hPa 0,0 l/m 2,9 km/h (1 Bft) S 180 13,1 C 15,4 C
26.08.2012 03:51 15,3 C 86 % 1007,6 hPa 0,0 l/m 0,0 km/h (0 Bft) S 180 13,0 C 15,3 C
26.08.2012 03:56 15,3 C 85 % 1007,5 hPa 0,0 l/m 1,8 km/h (1 Bft) S 180 12,8 C 15,3 C
26.08.2012 04:01 15,3 C 85 % 1007,4 hPa 0,0 l/m 0,0 km/h (0 Bft) S-SO 157 12,8 C 15,3 C
26.08.2012 04:06 15,2 C 85 % 1007,4 hPa 0,0 l/m 0,0 km/h (0 Bft) S 180 12,7 C 15,2 C
26.08.2012 04:11 15,2 C 85 % 1007,4 hPa 0,0 l/m 2,9 km/h (1 Bft) S 180 12,7 C 15,2 C
26.08.2012 04:16 15,1 C 85 % 1007,3 hPa 0,0 l/m 0,0 km/h (0 Bft) S-SO 157 12,6 C 15,1 C
26.08.2012 04:21 14,9 C 85 % 1007,4 hPa 0,0 l/m 3,2 km/h (1 Bft) S 180 12,4 C 14,9 C
26.08.2012 04:26 14,9 C 85 % 1007,3 hPa 0,0 l/m 3,6 km/h (1 Bft) S 180 12,4 C 14,9 C
26.08.2012 04:31 14,9 C 85 % 1007,3 hPa 0,0 l/m 2,5 km/h (1 Bft) S-SO 157 12,4 C 14,9 C
26.08.2012 04:36 14,9 C 85 % 1007,4 hPa 0,0 l/m 3,2 km/h (1 Bft) S-SW 202 12,4 C 14,9 C
26.08.2012 04:41 14,9 C 85 % 1007,3 hPa 0,0 l/m 0,0 km/h (0 Bft) S 180 12,4 C 14,9 C
26.08.2012 04:46 14,9 C 85 % 1007,4 hPa 0,0 l/m 2,5 km/h (1 Bft) S-SW 202 12,4 C 14,9 C
26.08.2012 04:51 14,9 C 85 % 1007,3 hPa 0,0 l/m 6,1 km/h (2 Bft) SW 225 12,4 C 14,9 C
26.08.2012 04:56 14,9 C 85 % 1007,4 hPa 0,0 l/m 7,2 km/h (2 Bft) S-SW 202 12,4 C 14,9 C
26.08.2012 05:01 14,9 C 85 % 1007,3 hPa 0,0 l/m 0,0 km/h (0 Bft) S-SW 202 12,4 C 14,9 C
26.08.2012 05:06 14,9 C 85 % 1007,3 hPa 0,0 l/m 4,0 km/h (1 Bft) S 180 12,4 C 14,9 C
26.08.2012 05:11 14,9 C 85 % 1007,4 hPa 0,0 l/m 2,5 km/h (1 Bft) S 180 12,4 C 14,9 C
26.08.2012 05:16 14,9 C 85 % 1007,3 hPa 0,0 l/m 0,0 km/h (0 Bft) S 180 12,4 C 14,9 C
26.08.2012 05:21 14,8 C 85 % 1007,4 hPa 0,0 l/m 1,1 km/h (1 Bft) S 180 12,3 C 14,8 C
26.08.2012 05:26 14,7 C 85 % 1007,3 hPa 0,0 l/m 0,0 km/h (0 Bft) S 180 12,2 C 14,7 C
26.08.2012 05:31 14,6 C 85 % 1007,4 hPa 0,0 l/m 1,1 km/h (1 Bft) S 180 12,1 C 14,6 C
26.08.2012 05:36 14,5 C 85 % 1007,4 hPa 0,0 l/m 0,0 km/h (0 Bft) S 180 12,0 C 14,5 C
26.08.2012 05:41 14,4 C 85 % 1007,3 hPa 0,0 l/m 0,0 km/h (0 Bft) S 180 11,9 C 14,4 C
26.08.2012 05:46 14,3 C 84 % 1007,5 hPa 0,0 l/m 3,2 km/h (1 Bft) S-SO 157 11,6 C 14,3 C
26.08.2012 05:51 14,2 C 85 % 1007,3 hPa 0,0 l/m 2,5 km/h (1 Bft) S-SO 157 11,7 C 14,2 C
26.08.2012 05:56 14,2 C 85 % 1007,3 hPa 0,0 l/m 1,1 km/h (1 Bft) S 180 11,7 C 14,2 C
26.08.2012 06:01 14,1 C 86 % 1007,3 hPa 0,0 l/m 1,8 km/h (1 Bft) S-SW 202 11,8 C 14,1 C
26.08.2012 06:06 14,1 C 86 % 1007,3 hPa 0,0 l/m 1,4 km/h (1 Bft) S-SW 202 11,8 C 14,1 C
26.08.2012 06:11 14,1 C 85 % 1007,3 hPa 0,0 l/m 0,0 km/h (0 Bft) S 180 11,6 C 14,1 C
26.08.2012 06:16 14,1 C 85 % 1007,3 hPa 0,0 l/m 2,9 km/h (1 Bft) S-SO 157 11,6 C 14,1 C
26.08.2012 06:21 14,1 C 85 % 1007,2 hPa 0,0 l/m 3,2 km/h (1 Bft) S-SO 157 11,6 C 14,1 C
26.08.2012 06:26 14,1 C 85 % 1007,2 hPa 0,0 l/m 0,0 km/h (0 Bft) S-SW 202 11,6 C 14,1 C
26.08.2012 06:31 14,1 C 85 % 1007,2 hPa 0,0 l/m 3,2 km/h (1 Bft) S-SO 157 11,6 C 14,1 C
26.08.2012 06:36 14,1 C 85 % 1007,3 hPa 0,0 l/m 6,1 km/h (2 Bft) S-SW 202 11,6 C 14,1 C
26.08.2012 06:41 14,1 C 85 % 1007,3 hPa 0,0 l/m 0,0 km/h (0 Bft) S-SO 157 11,6 C 14,1 C
26.08.2012 06:46 14,1 C 85 % 1007,3 hPa 0,0 l/m 3,2 km/h (1 Bft) W-SW 247 11,6 C 14,1 C
26.08.2012 06:51 14,1 C 85 % 1007,3 hPa 0,0 l/m 3,6 km/h (1 Bft) S-SO 157 11,6 C 14,1 C
26.08.2012 06:56 14,5 C 85 % 1007,3 hPa 0,0 l/m 4,3 km/h (1 Bft) S 180 12,0 C 14,5 C
26.08.2012 07:01 14,9 C 85 % 1007,3 hPa 0,0 l/m 2,5 km/h (1 Bft) S 180 12,4 C 14,9 C
26.08.2012 07:06 15,4 C 84 % 1007,3 hPa 0,0 l/m 9,0 km/h (2 Bft) S-SW 202 12,7 C 15,4 C
26.08.2012 07:11 15,9 C 83 % 1007,3 hPa 0,0 l/m 4,3 km/h (1 Bft) SW 225 13,0 C 15,9 C
26.08.2012 07:16 15,9 C 81 % 1007,4 hPa 0,0 l/m 1,1 km/h (1 Bft) S-SO 157 12,6 C 15,9 C
26.08.2012 07:21 16,3 C 81 % 1007,4 hPa 0,0 l/m 5,8 km/h (2 Bft) W-SW 247 13,0 C 16,3 C
26.08.2012 07:26 16,8 C 81 % 1007,4 hPa 0,0 l/m 3,2 km/h (1 Bft) S 180 13,5 C 16,8 C
26.08.2012 07:31 17,1 C 80 % 1007,4 hPa 0,0 l/m 5,8 km/h (2 Bft) S 180 13,6 C 17,1 C
26.08.2012 07:36 17,2 C 79 % 1007,4 hPa 0,0 l/m 5,8 km/h (2 Bft) S 180 13,5 C 17,2 C
26.08.2012 07:41 17,2 C 78 % 1007,3 hPa 0,0 l/m 2,9 km/h (1 Bft) S-SO 157 13,3 C 17,2 C
26.08.2012 07:46 17,1 C 78 % 1007,4 hPa 0,0 l/m 5,0 km/h (1 Bft) S 180 13,2 C 17,1 C
26.08.2012 07:51 16,9 C 78 % 1007,4 hPa 0,0 l/m 4,0 km/h (1 Bft) S-SW 202 13,0 C 16,9 C
26.08.2012 07:56 16,9 C 78 % 1007,4 hPa 0,0 l/m 4,7 km/h (1 Bft) SO 135 13,0 C 16,9 C
26.08.2012 08:01 17,1 C 78 % 1007,4 hPa 0,0 l/m 8,3 km/h (2 Bft) S 180 13,2 C 17,1 C
26.08.2012 08:06 17,3 C 78 % 1007,4 hPa 0,0 l/m 4,3 km/h (1 Bft) S-SW 202 13,4 C 17,3 C
26.08.2012 08:11 17,4 C 78 % 1007,5 hPa 0,0 l/m 4,3 km/h (1 Bft) S-SW 202 13,5 C 17,4 C
26.08.2012 08:16 17,6 C 77 % 1007,6 hPa 0,0 l/m 5,4 km/h (1 Bft) SW 225 13,5 C 17,6 C
26.08.2012 08:21 17,6 C 76 % 1007,5 hPa 0,0 l/m 14,0 km/h (3 Bft) SW 225 13,3 C 17,6 C
26.08.2012 08:26 17,8 C 75 % 1007,4 hPa 0,0 l/m 4,7 km/h (1 Bft) S-SO 157 13,3 C 17,8 C
26.08.2012 08:31 17,9 C 75 % 1007,4 hPa 0,0 l/m 8,6 km/h (2 Bft) S 180 13,4 C 17,9 C
26.08.2012 08:36 17,9 C 74 % 1007,4 hPa 0,0 l/m 5,4 km/h (1 Bft) S 180 13,2 C 17,9 C
26.08.2012 08:41 17,9 C 74 % 1007,4 hPa 0,0 l/m 7,2 km/h (2 Bft) SW 225 13,2 C 17,9 C
26.08.2012 08:46 17,8 C 74 % 1007,4 hPa 0,0 l/m 14,8 km/h (3 Bft) SW 225 13,1 C 17,8 C
26.08.2012 08:51 17,9 C 74 % 1007,4 hPa 0,0 l/m 14,4 km/h (3 Bft) W-SW 247 13,2 C 17,9 C
26.08.2012 08:56 18,3 C 73 % 1007,4 hPa 0,0 l/m 10,4 km/h (2 Bft) S-SW 202 13,4 C 18,3 C
26.08.2012 09:01 18,6 C 72 % 1007,4 hPa 0,0 l/m 9,7 km/h (2 Bft) S 180 13,4 C 18,6 C
26.08.2012 09:06 18,6 C 71 % 1007,4 hPa 0,0 l/m 19,4 km/h (3 Bft) W-SW 247 13,2 C 18,6 C
26.08.2012 09:11 18,6 C 71 % 1007,4 hPa 0,0 l/m 14,8 km/h (3 Bft) SW 225 13,2 C 18,6 C
26.08.2012 09:16 18,6 C 71 % 1007,4 hPa 0,0 l/m 13,0 km/h (3 Bft) W-SW 247 13,2 C 18,6 C
26.08.2012 09:21 18,6 C 71 % 1007,3 hPa 0,0 l/m 12,2 km/h (2 Bft) SW 225 13,2 C 18,6 C
26.08.2012 09:26 18,8 C 70 % 1007,3 hPa 0,0 l/m 4,7 km/h (1 Bft) S 180 13,2 C 18,8 C
26.08.2012 09:31 19,1 C 70 % 1007,4 hPa 0,0 l/m 4,3 km/h (1 Bft) S-SW 202 13,5 C 19,1 C
26.08.2012 09:36 19,5 C 69 % 1007,4 hPa 0,0 l/m 8,3 km/h (2 Bft) W-SW 247 13,7 C 19,5 C
26.08.2012 09:41 19,8 C 68 % 1007,3 hPa 0,0 l/m 4,7 km/h (1 Bft) S-SO 157 13,7 C 19,8 C
26.08.2012 09:46 20,1 C 67 % 1007,3 hPa 0,0 l/m 7,6 km/h (2 Bft) W-SW 247 13,8 C 20,1 C
26.08.2012 09:51 20,4 C 67 % 1007,1 hPa 0,0 l/m 4,7 km/h (1 Bft) W-NW 292 14,1 C 20,4 C
26.08.2012 09:56 20,8 C 65 % 1007,3 hPa 0,0 l/m 15,5 km/h (3 Bft) S 180 14,0 C 20,8 C
26.08.2012 10:01 21,0 C 62 % 1007,2 hPa 0,0 l/m 18,4 km/h (3 Bft) W-SW 247 13,4 C 21,0 C
26.08.2012 10:06 21,0 C 61 % 1007,2 hPa 0,0 l/m 20,9 km/h (4 Bft) W 270 13,2 C 21,0 C
26.08.2012 10:11 20,9 C 59 % 1007,3 hPa 0,0 l/m 18,4 km/h (3 Bft) W-SW 247 12,6 C 20,9 C
26.08.2012 10:16 20,9 C 59 % 1007,3 hPa 0,0 l/m 21,2 km/h (4 Bft) SW 225 12,6 C 20,9 C
26.08.2012 10:21 20,8 C 59 % 1007,4 hPa 0,0 l/m 23,0 km/h (4 Bft) SW 225 12,5 C 20,8 C
26.08.2012 10:26 20,9 C 59 % 1007,4 hPa 0,0 l/m 20,2 km/h (4 Bft) W-SW 247 12,6 C 20,9 C
26.08.2012 10:31 21,1 C 58 % 1007,3 hPa 0,0 l/m 9,0 km/h (2 Bft) W 270 12,5 C 21,1 C
26.08.2012 10:36 20,9 C 58 % 1007,4 hPa 0,0 l/m 21,2 km/h (4 Bft) S-SO 157 12,3 C 20,9 C
26.08.2012 10:41 20,9 C 59 % 1007,4 hPa 0,0 l/m 14,8 km/h (3 Bft) W 270 12,6 C 20,9 C
26.08.2012 10:46 21,3 C 59 % 1007,3 hPa 0,0 l/m 34,9 km/h (5 Bft) W 270 13,0 C 21,3 C
26.08.2012 10:51 21,4 C 57 % 1007,4 hPa 0,0 l/m 13,7 km/h (3 Bft) W-SW 247 12,5 C 21,4 C
26.08.2012 10:56 21,1 C 57 % 1007,4 hPa 0,0 l/m 19,1 km/h (3 Bft) W 270 12,2 C 21,1 C
26.08.2012 11:01 21,4 C 57 % 1007,4 hPa 0,0 l/m 19,8 km/h (3 Bft) W-SW 247 12,5 C 21,4 C
26.08.2012 11:06 21,7 C 56 % 1007,5 hPa 0,0 l/m 20,5 km/h (4 Bft) W-NW 292 12,5 C 21,7 C
26.08.2012 11:11 21,5 C 55 % 1007,5 hPa 0,0 l/m 19,4 km/h (3 Bft) W 270 12,1 C 21,5 C
26.08.2012 11:16 21,4 C 56 % 1007,5 hPa 0,0 l/m 15,8 km/h (3 Bft) W-SW 247 12,3 C 21,4 C
26.08.2012 11:21 21,4 C 56 % 1007,5 hPa 0,0 l/m 15,8 km/h (3 Bft) SW 225 12,3 C 21,4 C
26.08.2012 11:26 21,6 C 56 % 1007,5 hPa 0,0 l/m 7,6 km/h (2 Bft) W 270 12,4 C 21,6 C
26.08.2012 11:31 21,4 C 55 % 1007,7 hPa 0,0 l/m 24,1 km/h (4 Bft) W 270 12,0 C 21,4 C
26.08.2012 11:36 21,3 C 55 % 1007,6 hPa 0,0 l/m 23,0 km/h (4 Bft) W 270 11,9 C 21,3 C
26.08.2012 11:41 21,2 C 55 % 1007,6 hPa 0,0 l/m 16,2 km/h (3 Bft) SW 225 11,8 C 21,2 C
26.08.2012 11:46 21,3 C 56 % 1007,5 hPa 0,0 l/m 15,8 km/h (3 Bft) W-SW 247 12,2 C 21,3 C
26.08.2012 11:51 21,5 C 56 % 1007,6 hPa 0,0 l/m 15,5 km/h (3 Bft) S-SW 202 12,3 C 21,5 C
26.08.2012 11:56 21,8 C 55 % 1007,6 hPa 0,0 l/m 24,5 km/h (4 Bft) W-SW 247 12,4 C 21,8 C
26.08.2012 12:01 22,1 C 54 % 1007,6 hPa 0,0 l/m 23,0 km/h (4 Bft) S-SO 157 12,3 C 22,1 C
26.08.2012 12:06 21,8 C 53 % 1007,7 hPa 0,0 l/m 23,4 km/h (4 Bft) W 270 11,8 C 21,8 C
26.08.2012 12:11 21,5 C 53 % 1007,6 hPa 0,0 l/m 14,8 km/h (3 Bft) SW 225 11,5 C 21,5 C
26.08.2012 12:16 21,3 C 54 % 1007,7 hPa 0,0 l/m 22,0 km/h (4 Bft) SW 225 11,6 C 21,3 C
26.08.2012 12:21 21,1 C 55 % 1007,7 hPa 0,0 l/m 17,6 km/h (3 Bft) W-SW 247 11,7 C 21,1 C
26.08.2012 12:26 21,2 C 55 % 1007,7 hPa 0,0 l/m 16,9 km/h (3 Bft) S-SW 202 11,8 C 21,2 C
26.08.2012 12:31 21,6 C 55 % 1007,6 hPa 0,0 l/m 16,2 km/h (3 Bft) W-NW 292 12,2 C 21,6 C
26.08.2012 12:36 21,6 C 53 % 1007,7 hPa 0,0 l/m 15,8 km/h (3 Bft) SW 225 11,6 C 21,6 C
26.08.2012 12:41 21,6 C 54 % 1007,5 hPa 0,0 l/m 18,7 km/h (3 Bft) S-SO 157 11,9 C 21,6 C
26.08.2012 12:46 21,8 C 54 % 1007,6 hPa 0,0 l/m 14,4 km/h (3 Bft) W-SW 247 12,1 C 21,8 C
26.08.2012 12:51 22,2 C 52 % 1007,5 hPa 0,0 l/m 14,8 km/h (3 Bft) SW 225 11,9 C 22,2 C
26.08.2012 12:56 22,5 C 51 % 1007,4 hPa 0,0 l/m 18,7 km/h (3 Bft) W-SW 247 11,8 C 22,5 C
26.08.2012 13:01 22,4 C 51 % 1007,5 hPa 0,0 l/m 30,6 km/h (5 Bft) W 270 11,8 C 22,4 C
26.08.2012 13:06 22,2 C 52 % 1007,5 hPa 0,0 l/m 12,2 km/h (2 Bft) W-SW 247 11,9 C 22,2 C
26.08.2012 13:11 21,9 C 52 % 1007,5 hPa 0,0 l/m 12,6 km/h (3 Bft) SW 225 11,6 C 21,9 C
26.08.2012 13:16 21,8 C 53 % 1007,7 hPa 0,0 l/m 15,5 km/h (3 Bft) NW 315 11,8 C 21,8 C
26.08.2012 13:21 21,2 C 57 % 1007,8 hPa 0,0 l/m 11,5 km/h (2 Bft) W 270 12,3 C 21,2 C
26.08.2012 13:26 20,8 C 59 % 1007,9 hPa 0,0 l/m 19,4 km/h (3 Bft) W-SW 247 12,5 C 20,8 C
26.08.2012 13:31 20,5 C 60 % 1008,0 hPa 0,0 l/m 24,1 km/h (4 Bft) S-SW 202 12,5 C 20,5 C
26.08.2012 13:36 20,6 C 61 % 1007,9 hPa 0,0 l/m 8,6 km/h (2 Bft) SW 225 12,8 C 20,6 C
26.08.2012 13:41 20,8 C 61 % 1008,0 hPa 0,0 l/m 27,7 km/h (4 Bft) W 270 13,0 C 20,8 C
26.08.2012 13:46 20,9 C 60 % 1007,8 hPa 0,0 l/m 20,9 km/h (4 Bft) W-SW 247 12,8 C 20,9 C
26.08.2012 13:51 20,8 C 59 % 1007,8 hPa 0,0 l/m 25,2 km/h (4 Bft) W-NW 292 12,5 C 20,8 C
26.08.2012 13:56 20,9 C 60 % 1007,8 hPa 0,0 l/m 26,6 km/h (4 Bft) SW 225 12,8 C 20,9 C
26.08.2012 14:01 21,0 C 59 % 1007,7 hPa 0,0 l/m 33,5 km/h (5 Bft) W-SW 247 12,7 C 21,0 C
26.08.2012 14:06 21,0 C 59 % 1007,7 hPa 0,0 l/m 22,7 km/h (4 Bft) W 270 12,7 C 21,0 C
26.08.2012 14:11 21,0 C 59 % 1007,8 hPa 0,0 l/m 28,1 km/h (4 Bft) W-SW 247 12,7 C 21,0 C
26.08.2012 14:16 21,2 C 59 % 1007,5 hPa 0,0 l/m 29,5 km/h (5 Bft) W-SW 247 12,9 C 21,2 C
26.08.2012 14:21 21,4 C 58 % 1007,7 hPa 0,0 l/m 13,3 km/h (3 Bft) W 270 12,8 C 21,4 C
26.08.2012 14:26 21,7 C 57 % 1007,7 hPa 0,0 l/m 10,1 km/h (2 Bft) W-SW 247 12,8 C 21,7 C
26.08.2012 14:31 21,8 C 56 % 1007,7 hPa 0,0 l/m 20,9 km/h (4 Bft) W-NW 292 12,6 C 21,8 C
26.08.2012 14:36 21,9 C 54 % 1007,8 hPa 0,0 l/m 22,3 km/h (4 Bft) W 270 12,2 C 21,9 C
26.08.2012 14:41 22,1 C 53 % 1007,9 hPa 0,0 l/m 18,4 km/h (3 Bft) W-NW 292 12,1 C 22,1 C
26.08.2012 14:46 22,1 C 54 % 1007,8 hPa 0,0 l/m 31,7 km/h (5 Bft) W-SW 247 12,3 C 22,1 C
26.08.2012 14:51 21,8 C 55 % 1007,8 hPa 0,0 l/m 24,8 km/h (4 Bft) W 270 12,4 C 21,8 C
26.08.2012 14:56 21,6 C 55 % 1007,8 hPa 0,0 l/m 19,4 km/h (3 Bft) W-SW 247 12,2 C 21,6 C
26.08.2012 15:01 21,4 C 56 % 1007,8 hPa 0,0 l/m 33,5 km/h (5 Bft) W 270 12,3 C 21,4 C
26.08.2012 15:06 21,3 C 57 % 1007,7 hPa 0,0 l/m 21,6 km/h (4 Bft) SW 225 12,4 C 21,3 C
26.08.2012 15:11 21,1 C 57 % 1007,6 hPa 0,0 l/m 12,2 km/h (2 Bft) W-SW 247 12,2 C 21,1 C
26.08.2012 15:16 20,9 C 57 % 1007,7 hPa 0,0 l/m 21,2 km/h (4 Bft) W-SW 247 12,1 C 20,9 C
26.08.2012 15:21 20,7 C 59 % 1007,9 hPa 0,0 l/m 21,2 km/h (4 Bft) S-SW 202 12,4 C 20,7 C
26.08.2012 15:26 20,5 C 61 % 1008,0 hPa 0,0 l/m 7,2 km/h (2 Bft) W 270 12,7 C 20,5 C
26.08.2012 15:31 20,3 C 65 % 1007,9 hPa 0,0 l/m 17,6 km/h (3 Bft) W-SW 247 13,5 C 20,3 C
26.08.2012 15:36 19,9 C 66 % 1007,9 hPa 0,0 l/m 16,9 km/h (3 Bft) SW 225 13,4 C 19,9 C
26.08.2012 15:41 19,9 C 65 % 1007,7 hPa 0,0 l/m 11,5 km/h (2 Bft) W-SW 247 13,1 C 19,9 C
26.08.2012 15:46 20,0 C 65 % 1007,7 hPa 0,0 l/m 10,8 km/h (2 Bft) S-SW 202 13,2 C 20,0 C
26.08.2012 15:51 20,6 C 63 % 1007,6 hPa 0,0 l/m 24,8 km/h (4 Bft) W 270 13,3 C 20,6 C
26.08.2012 15:56 21,0 C 61 % 1007,8 hPa 0,0 l/m 33,1 km/h (5 Bft) W 270 13,2 C 21,0 C
26.08.2012 16:01 20,8 C 61 % 1007,8 hPa 0,0 l/m 20,9 km/h (4 Bft) S-SW 202 13,0 C 20,8 C
26.08.2012 16:06 20,5 C 62 % 1007,9 hPa 0,0 l/m 17,3 km/h (3 Bft) W-SW 247 13,0 C 20,5 C
26.08.2012 16:11 20,4 C 63 % 1007,8 hPa 0,0 l/m 20,2 km/h (4 Bft) W-SW 247 13,1 C 20,4 C
26.08.2012 16:16 20,3 C 64 % 1007,8 hPa 0,0 l/m 16,6 km/h (3 Bft) S 180 13,3 C 20,3 C
26.08.2012 16:21 20,4 C 63 % 1008,0 hPa 0,0 l/m 15,5 km/h (3 Bft) S-SW 202 13,1 C 20,4 C
26.08.2012 16:26 20,4 C 63 % 1008,1 hPa 0,0 l/m 27,4 km/h (4 Bft) W 270 13,1 C 20,4 C
26.08.2012 16:31 20,2 C 63 % 1008,1 hPa 0,0 l/m 36,7 km/h (5 Bft) W-SW 247 12,9 C 20,2 C
26.08.2012 16:36 20,0 C 64 % 1008,1 hPa 0,0 l/m 30,2 km/h (5 Bft) W-SW 247 13,0 C 20,0 C
26.08.2012 16:41 19,9 C 64 % 1008,1 hPa 0,0 l/m 22,7 km/h (4 Bft) W 270 12,9 C 19,9 C
26.08.2012 16:46 19,9 C 65 % 1008,0 hPa 0,0 l/m 16,9 km/h (3 Bft) W 270 13,1 C 19,9 C
26.08.2012 16:51 19,9 C 65 % 1008,1 hPa 0,0 l/m 20,9 km/h (4 Bft) S-SW 202 13,1 C 19,9 C
26.08.2012 16:56 20,2 C 65 % 1008,1 hPa 0,0 l/m 29,9 km/h (5 Bft) W-SW 247 13,4 C 20,2 C
26.08.2012 17:01 20,4 C 63 % 1008,2 hPa 0,0 l/m 6,1 km/h (2 Bft) SO 135 13,1 C 20,4 C
26.08.2012 17:06 20,4 C 63 % 1008,3 hPa 0,0 l/m 34,2 km/h (5 Bft) W-SW 247 13,1 C 20,4 C
26.08.2012 17:11 20,2 C 63 % 1008,4 hPa 0,0 l/m 26,6 km/h (4 Bft) W 270 12,9 C 20,2 C
26.08.2012 17:16 19,9 C 64 % 1008,6 hPa 0,0 l/m 16,2 km/h (3 Bft) W 270 12,9 C 19,9 C
26.08.2012 17:21 19,8 C 65 % 1008,7 hPa 0,0 l/m 28,8 km/h (4 Bft) W 270 13,0 C 19,8 C
26.08.2012 17:26 19,6 C 66 % 1008,4 hPa 0,0 l/m 19,4 km/h (3 Bft) W-SW 247 13,1 C 19,6 C
26.08.2012 17:31 19,4 C 66 % 1008,5 hPa 0,0 l/m 25,2 km/h (4 Bft) W 270 12,9 C 19,4 C
26.08.2012 17:36 19,4 C 67 % 1008,6 hPa 0,0 l/m 18,7 km/h (3 Bft) W 270 13,1 C 19,4 C
26.08.2012 17:41 19,3 C 68 % 1008,8 hPa 0,0 l/m 14,4 km/h (3 Bft) W-SW 247 13,2 C 19,3 C
26.08.2012 17:46 19,2 C 70 % 1008,9 hPa 0,0 l/m 6,1 km/h (2 Bft) W 270 13,6 C 19,2 C
26.08.2012 17:51 18,9 C 73 % 1008,9 hPa 0,5 l/m 3,6 km/h (1 Bft) W-SW 247 13,9 C 18,9 C
26.08.2012 17:56 18,4 C 75 % 1008,9 hPa 0,0 l/m 14,4 km/h (3 Bft) SW 225 13,9 C 18,4 C
26.08.2012 18:01 18,1 C 78 % 1009,1 hPa 0,0 l/m 14,4 km/h (3 Bft) W-SW 247 14,2 C 18,1 C
26.08.2012 18:06 17,8 C 79 % 1009,1 hPa 0,0 l/m 10,8 km/h (2 Bft) W 270 14,1 C 17,8 C
26.08.2012 18:11 17,6 C 80 % 1009,2 hPa 0,0 l/m 15,1 km/h (3 Bft) W-SW 247 14,1 C 17,6 C
26.08.2012 18:16 17,4 C 81 % 1009,1 hPa 0,0 l/m 16,6 km/h (3 Bft) W-SW 247 14,1 C 17,4 C
26.08.2012 18:21 17,4 C 82 % 1008,9 hPa 0,5 l/m 28,1 km/h (4 Bft) W-SW 247 14,3 C 17,4 C
26.08.2012 18:26 17,3 C 82 % 1008,9 hPa 0,0 l/m 7,9 km/h (2 Bft) W 270 14,2 C 17,3 C
26.08.2012 18:31 17,3 C 82 % 1009,0 hPa 0,0 l/m 9,7 km/h (2 Bft) S-SW 202 14,2 C 17,3 C
26.08.2012 18:36 17,2 C 82 % 1009,0 hPa 0,0 l/m 16,9 km/h (3 Bft) W 270 14,1 C 17,2 C
26.08.2012 18:41 17,1 C 83 % 1009,1 hPa 0,0 l/m 11,5 km/h (2 Bft) W-SW 247 14,2 C 17,1 C
26.08.2012 18:46 16,9 C 83 % 1009,1 hPa 0,0 l/m 10,8 km/h (2 Bft) W 270 14,0 C 16,9 C
26.08.2012 18:51 16,9 C 83 % 1009,1 hPa 0,0 l/m 10,1 km/h (2 Bft) W-NW 292 14,0 C 16,9 C
26.08.2012 18:56 16,9 C 84 % 1009,3 hPa 0,0 l/m 11,9 km/h (2 Bft) SW 225 14,2 C 16,9 C
26.08.2012 19:01 16,9 C 84 % 1009,3 hPa 0,0 l/m 6,1 km/h (2 Bft) W-SW 247 14,2 C 16,9 C
26.08.2012 19:06 16,9 C 84 % 1009,5 hPa 0,0 l/m 14,0 km/h (3 Bft) W 270 14,2 C 16,9 C
26.08.2012 19:11 16,9 C 85 % 1009,5 hPa 0,0 l/m 19,1 km/h (3 Bft) W-SW 247 14,4 C 16,9 C
26.08.2012 19:16 16,9 C 85 % 1009,5 hPa 0,0 l/m 16,6 km/h (3 Bft) W-NW 292 14,4 C 16,9 C
26.08.2012 19:21 16,9 C 85 % 1009,5 hPa 0,0 l/m 11,5 km/h (2 Bft) SW 225 14,4 C 16,9 C
26.08.2012 19:26 16,9 C 85 % 1009,7 hPa 0,0 l/m 15,1 km/h (3 Bft) W-NW 292 14,4 C 16,9 C
26.08.2012 19:31 16,9 C 85 % 1009,6 hPa 0,0 l/m 23,0 km/h (4 Bft) SW 225 14,4 C 16,9 C
26.08.2012 19:36 16,9 C 85 % 1009,7 hPa 0,0 l/m 8,3 km/h (2 Bft) W 270 14,4 C 16,9 C
26.08.2012 19:41 16,9 C 85 % 1009,9 hPa 0,0 l/m 7,2 km/h (2 Bft) W 270 14,4 C 16,9 C
26.08.2012 19:46 16,9 C 84 % 1009,8 hPa 0,0 l/m 9,0 km/h (2 Bft) W-NW 292 14,2 C 16,9 C
26.08.2012 19:51 16,8 C 84 % 1009,9 hPa 0,0 l/m 16,6 km/h (3 Bft) W 270 14,1 C 16,8 C
26.08.2012 19:56 16,7 C 85 % 1010,1 hPa 0,0 l/m 4,7 km/h (1 Bft) NW 315 14,2 C 16,7 C
26.08.2012 20:01 16,6 C 85 % 1010,2 hPa 0,0 l/m 9,0 km/h (2 Bft) W 270 14,1 C 16,6 C
26.08.2012 20:06 16,5 C 85 % 1010,2 hPa 0,0 l/m 16,9 km/h (3 Bft) W-NW 292 14,0 C 16,5 C
26.08.2012 20:11 16,5 C 85 % 1010,5 hPa 0,0 l/m 20,5 km/h (4 Bft) W 270 14,0 C 16,5 C
26.08.2012 20:16 16,4 C 85 % 1010,2 hPa 0,0 l/m 6,5 km/h (2 Bft) W-SW 247 13,9 C 16,4 C
26.08.2012 20:21 16,4 C 85 % 1010,4 hPa 0,0 l/m 19,8 km/h (3 Bft) W-NW 292 13,9 C 16,4 C
26.08.2012 20:26 16,3 C 85 % 1010,6 hPa 0,0 l/m 14,4 km/h (3 Bft) NW 315 13,8 C 16,3 C
26.08.2012 20:31 16,3 C 85 % 1010,7 hPa 0,0 l/m 12,6 km/h (3 Bft) W 270 13,8 C 16,3 C
26.08.2012 20:36 16,2 C 86 % 1010,7 hPa 0,0 l/m 19,1 km/h (3 Bft) W 270 13,9 C 16,2 C
26.08.2012 20:41 16,2 C 86 % 1010,9 hPa 0,0 l/m 17,6 km/h (3 Bft) W-SW 247 13,9 C 16,2 C
26.08.2012 20:46 16,1 C 86 % 1011,0 hPa 0,0 l/m 12,2 km/h (2 Bft) W-SW 247 13,8 C 16,1 C
26.08.2012 20:51 16,1 C 86 % 1011,1 hPa 0,0 l/m 4,0 km/h (1 Bft) W 270 13,8 C 16,1 C
26.08.2012 20:56 16,1 C 86 % 1011,1 hPa 0,0 l/m 9,7 km/h (2 Bft) W-SW 247 13,8 C 16,1 C
26.08.2012 21:01 16,0 C 86 % 1011,3 hPa 0,0 l/m 13,7 km/h (3 Bft) W-SW 247 13,7 C 16,0 C
26.08.2012 21:06 16,0 C 87 % 1011,3 hPa 0,0 l/m 11,2 km/h (2 Bft) W-SW 247 13,8 C 16,0 C
26.08.2012 21:11 15,9 C 87 % 1011,5 hPa 0,0 l/m 3,6 km/h (1 Bft) W-SW 247 13,7 C 15,9 C
26.08.2012 21:16 15,9 C 87 % 1011,6 hPa 0,0 l/m 13,0 km/h (3 Bft) W-SW 247 13,7 C 15,9 C
26.08.2012 21:21 15,9 C 87 % 1011,6 hPa 0,0 l/m 16,9 km/h (3 Bft) W 270 13,7 C 15,9 C
26.08.2012 21:26 15,9 C 87 % 1011,7 hPa 0,0 l/m 4,7 km/h (1 Bft) W 270 13,7 C 15,9 C
26.08.2012 21:31 15,9 C 87 % 1011,7 hPa 0,0 l/m 15,5 km/h (3 Bft) W-SW 247 13,7 C 15,9 C
26.08.2012 21:36 15,9 C 87 % 1011,7 hPa 0,0 l/m 14,8 km/h (3 Bft) W-SW 247 13,7 C 15,9 C
26.08.2012 21:41 15,8 C 86 % 1011,7 hPa 0,0 l/m 18,7 km/h (3 Bft) W 270 13,5 C 15,8 C
26.08.2012 21:46 15,8 C 86 % 1011,8 hPa 0,0 l/m 5,0 km/h (1 Bft) W 270 13,5 C 15,8 C
26.08.2012 21:51 15,8 C 86 % 1012,0 hPa 0,0 l/m 7,9 km/h (2 Bft) W-NW 292 13,5 C 15,8 C
26.08.2012 21:56 15,8 C 86 % 1012,1 hPa 0,0 l/m 10,8 km/h (2 Bft) W-SW 247 13,5 C 15,8 C
26.08.2012 22:01 15,7 C 86 % 1012,1 hPa 0,0 l/m 5,0 km/h (1 Bft) W-NW 292 13,4 C 15,7 C
26.08.2012 22:06 15,6 C 86 % 1012,2 hPa 0,0 l/m 8,3 km/h (2 Bft) W-NW 292 13,3 C 15,6 C
26.08.2012 22:11 15,6 C 87 % 1012,3 hPa 0,0 l/m 4,0 km/h (1 Bft) W-NW 292 13,4 C 15,6 C
26.08.2012 22:16 15,6 C 87 % 1012,4 hPa 0,0 l/m 5,0 km/h (1 Bft) W 270 13,4 C 15,6 C
26.08.2012 22:21 15,6 C 87 % 1012,5 hPa 0,0 l/m 19,1 km/h (3 Bft) W 270 13,4 C 15,6 C
26.08.2012 22:26 15,6 C 87 % 1012,7 hPa 0,0 l/m 13,7 km/h (3 Bft) W 270 13,4 C 15,6 C
26.08.2012 22:31 15,6 C 87 % 1012,7 hPa 0,0 l/m 5,8 km/h (2 Bft) W 270 13,4 C 15,6 C
26.08.2012 22:36 15,6 C 87 % 1012,9 hPa 0,0 l/m 8,3 km/h (2 Bft) W-SW 247 13,4 C 15,6 C
26.08.2012 22:41 15,5 C 87 % 1013,0 hPa 0,0 l/m 6,5 km/h (2 Bft) W-NW 292 13,3 C 15,5 C
26.08.2012 22:46 15,5 C 87 % 1013,0 hPa 0,0 l/m 6,1 km/h (2 Bft) W 270 13,3 C 15,5 C
26.08.2012 22:51 15,5 C 87 % 1013,1 hPa 0,0 l/m 14,4 km/h (3 Bft) W-NW 292 13,3 C 15,5 C
26.08.2012 22:56 15,4 C 87 % 1013,2 hPa 0,0 l/m 6,1 km/h (2 Bft) W-SW 247 13,2 C 15,4 C
26.08.2012 23:01 15,4 C 87 % 1013,3 hPa 0,0 l/m 6,1 km/h (2 Bft) W 270 13,2 C 15,4 C
26.08.2012 23:06 15,4 C 87 % 1013,4 hPa 0,0 l/m 16,2 km/h (3 Bft) NW 315 13,2 C 15,4 C
26.08.2012 23:11 15,3 C 87 % 1013,4 hPa 0,0 l/m 16,9 km/h (3 Bft) NW 315 13,1 C 15,3 C
26.08.2012 23:16 15,4 C 87 % 1013,4 hPa 0,0 l/m 4,7 km/h (1 Bft) W 270 13,2 C 15,4 C
26.08.2012 23:21 15,4 C 87 % 1013,6 hPa 0,0 l/m 9,0 km/h (2 Bft) W 270 13,2 C 15,4 C
26.08.2012 23:26 15,3 C 87 % 1013,8 hPa 0,0 l/m 9,7 km/h (2 Bft) W-NW 292 13,1 C 15,3 C
26.08.2012 23:31 15,3 C 87 % 1013,8 hPa 0,0 l/m 15,8 km/h (3 Bft) W-NW 292 13,1 C 15,3 C
26.08.2012 23:36 15,3 C 87 % 1013,9 hPa 0,0 l/m 8,6 km/h (2 Bft) W 270 13,1 C 15,3 C
26.08.2012 23:41 15,3 C 87 % 1014,0 hPa 0,0 l/m 8,3 km/h (2 Bft) W-NW 292 13,1 C 15,3 C
26.08.2012 23:46 15,2 C 87 % 1014,0 hPa 0,0 l/m 9,4 km/h (2 Bft) W-NW 292 13,0 C 15,2 C
26.08.2012 23:51 15,2 C 86 % 1014,1 hPa 0,0 l/m 5,8 km/h (2 Bft) W-NW 292 12,9 C 15,2 C
26.08.2012 23:56 15,2 C 86 % 1014,1 hPa 0,0 l/m 12,2 km/h (2 Bft) W 270 12,9 C 15,2 C
_ Min-Zeit 06:01 12:56 01:31 - 00:16 - - 12:11 06:01
Minimum _ 14,1 C 51 % 1007,0 hPa - 0,0 km/h (0 Bft) - - 11,5 C 14,1 C
_ Max-Zeit 12:56 21:06 23:51 17:51 16:31 - - 01:31 12:56
Maximum _ 22,5 C 87 % 1014,1 hPa 0,5 l/m 36,7 km/h
W-SW (5 Bft)
- - 14,4 C 22,5 C
Durchschnitt _ 17,8 C 75 % 1008,5 hPa #1,0 l/m 11,0 km/h (2 Bft) W-SW - 13,1 C 17,8 C
(c) by David Heller